Time;durP1;ratioP1;P1;durP2;ratioP2;P2;SDS_P1;SDS_P2;PMS_P1;PMS_P2;Temp;Humidity;BMP_temperature;BMP_pressure;BME280_temperature;BME280_humidity;BME280_pressure;Samples;Min_cycle;Max_cycle;Signal;HPM_P1;HPM_P2
2024/01/16 00:00:15;;;;;;;74.25;38.20;;;;;;;;;;5114500;28;20043;-72
2024/01/16 00:03:20;;;;;;;76.07;41.08;;;;;;;;;;5114472;28;20047;-72
2024/01/16 00:06:24;;;;;;;70.45;40.95;;;;;;;;;;5114166;28;20395;-72
2024/01/16 00:09:29;;;;;;;68.65;38.90;;;;;;;;;;5114813;28;20058;-72
2024/01/16 00:12:33;;;;;;;68.78;37.78;;;;;;;;;;5114107;28;20054;-73
2024/01/16 00:15:37;;;;;;;59.42;38.67;;;;;;;;;;5113555;28;20478;-72
2024/01/16 00:18:41;;;;;;;69.95;37.28;;;;;;;;;;5113828;28;20043;-72
2024/01/16 00:21:46;;;;;;;65.35;34.90;;;;;;;;;;5114284;28;20058;-72
2024/01/16 00:24:51;;;;;;;62.38;33.35;;;;;;;;;;5114076;28;20051;-72
2024/01/16 00:27:55;;;;;;;53.83;29.85;;;;;;;;;;5113002;28;20043;-72
2024/01/16 00:31:00;;;;;;;63.95;30.25;;;;;;;;;;5114389;28;20502;-73
2024/01/16 00:34:05;;;;;;;54.65;28.40;;;;;;;;;;5113865;28;20050;-73
2024/01/16 00:37:09;;;;;;;52.97;27.88;;;;;;;;;;5113769;28;20038;-72
2024/01/16 00:40:14;;;;;;;65.35;31.75;;;;;;;;;;5113939;28;20623;-72
2024/01/16 00:43:18;;;;;;;62.03;32.28;;;;;;;;;;5113758;28;20051;-72
2024/01/16 00:46:22;;;;;;;51.45;28.33;;;;;;;;;;5113478;28;20387;-72
2024/01/16 00:49:26;;;;;;;53.72;24.33;;;;;;;;;;5113600;28;20141;-72
2024/01/16 00:52:31;;;;;;;54.72;22.88;;;;;;;;;;5113272;28;20054;-72
2024/01/16 00:55:35;;;;;;;49.72;20.35;;;;;;;;;;5113465;28;20407;-72
2024/01/16 00:58:40;;;;;;;42.03;20.73;;;;;;;;;;5113373;28;20529;-72
2024/01/16 01:01:44;;;;;;;38.75;19.20;;;;;;;;;;5113558;28;20052;-72
2024/01/16 01:04:48;;;;;;;46.03;19.92;;;;;;;;;;5112898;28;20039;-72
2024/01/16 01:07:53;;;;;;;48.22;17.85;;;;;;;;;;5113524;28;20042;-72
2024/01/16 01:10:57;;;;;;;44.83;13.88;;;;;;;;;;5112209;28;20046;-72
2024/01/16 01:14:01;;;;;;;50.28;12.57;;;;;;;;;;5113092;28;20506;-72
2024/01/16 01:17:06;;;;;;;46.33;10.20;;;;;;;;;;5112828;28;20038;-72
2024/01/16 01:20:12;;;;;;;45.92;10.90;;;;;;;;;;5112867;28;20046;-72
2024/01/16 01:23:16;;;;;;;44.22;13.25;;;;;;;;;;5112873;28;20038;-72
2024/01/16 01:26:21;;;;;;;43.63;10.90;;;;;;;;;;5112894;28;20054;-72
2024/01/16 01:29:25;;;;;;;45.45;13.55;;;;;;;;;;5112575;28;20391;-72
2024/01/16 01:32:29;;;;;;;45.95;13.05;;;;;;;;;;5112328;28;20050;-72
2024/01/16 01:35:33;;;;;;;47.35;15.40;;;;;;;;;;5112394;28;20042;-73
2024/01/16 01:38:38;;;;;;;43.08;14.32;;;;;;;;;;5112783;28;20042;-72
2024/01/16 01:41:42;;;;;;;37.63;14.55;;;;;;;;;;5112795;28;20093;-73
2024/01/16 01:44:47;;;;;;;54.25;19.73;;;;;;;;;;5112484;28;20047;-73
2024/01/16 01:47:51;;;;;;;48.33;18.60;;;;;;;;;;5112474;28;20590;-72
2024/01/16 01:50:55;;;;;;;43.28;18.13;;;;;;;;;;5112469;28;20395;-72
2024/01/16 01:54:01;;;;;;;42.90;19.15;;;12.10;99.90;;;;;;5112534;28;20043;-72
2024/01/16 01:57:05;;;;;;;56.05;21.60;;;;;;;;;;5112383;28;20042;-72
2024/01/16 02:00:10;;;;;;;50.25;23.10;;;;;;;;;;5112373;28;20510;-73
2024/01/16 02:03:18;;;;;;;51.95;21.38;;;12.00;99.90;;;;;;5112129;28;20042;-73
2024/01/16 02:06:23;;;;;;;48.28;20.77;;;;;;;;;;5112032;28;20034;-72
2024/01/16 02:09:27;;;;;;;48.88;20.67;;;;;;;;;;5112057;28;20403;-73
2024/01/16 02:12:31;;;;;;;46.97;22.00;;;;;;;;;;5111746;28;20047;-72
2024/01/16 02:15:35;;;;;;;51.55;24.42;;;;;;;;;;5110239;28;20042;-72
2024/01/16 02:18:40;;;;;;;52.35;24.00;;;;;;;;;;5111112;28;20047;-72
2024/01/16 02:21:48;;;;;;;43.63;22.98;;;11.50;99.90;;;;;;5111721;28;20034;-73
2024/01/16 02:24:52;;;;;;;58.63;23.88;;;;;;;;;;5099369;28;20058;-72
2024/01/16 02:27:57;;;;;;;53.35;22.38;;;;;;;;;;5111624;28;20382;-72
2024/01/16 02:31:01;;;;;;;46.22;22.05;;;;;;;;;;5110957;28;20063;-72
2024/01/16 02:34:05;;;;;;;39.63;20.75;;;;;;;;;;5110825;28;20070;-72
2024/01/16 02:37:10;;;;;;;42.60;21.00;;;;;;;;;;5111655;28;20035;-72
2024/01/16 02:40:15;;;;;;;44.35;20.67;;;;;;;;;;5111426;28;20051;-72
2024/01/16 02:43:18;;;;;;;46.30;20.23;;;;;;;;;;5110745;28;20047;-72
2024/01/16 02:46:23;;;;;;;41.03;19.58;;;;;;;;;;5110533;28;20043;-72
2024/01/16 02:49:27;;;;;;;37.53;19.33;;;;;;;;;;5111528;28;20055;-72
2024/01/16 02:52:32;;;;;;;41.50;20.65;;;;;;;;;;5111372;28;20050;-72
2024/01/16 02:55:36;;;;;;;50.88;23.73;;;;;;;;;;5111481;28;20246;-73
2024/01/16 02:58:40;;;;;;;40.60;20.85;;;;;;;;;;5111396;28;20047;-72
2024/01/16 03:01:44;;;;;;;46.97;24.38;;;11.30;99.90;;;;;;5110653;28;20034;-72
2024/01/16 03:04:48;;;;;;;47.85;23.80;;;;;;;;;;5111528;28;20043;-73
2024/01/16 03:07:53;;;;;;;48.30;22.08;;;;;;;;;;5111530;28;20121;-73
2024/01/16 03:10:57;;;;;;;50.72;21.52;;;;;;;;;;5111448;28;20047;-72
2024/01/16 03:14:01;;;;;;;53.78;21.85;;;;;;;;;;5110660;28;20050;-72
2024/01/16 03:17:06;;;;;;;44.05;20.30;;;;;;;;;;5111349;28;20051;-73
2024/01/16 03:20:11;;;;;;;45.33;21.15;;;;;;;;;;5110890;28;20058;-72
2024/01/16 03:23:16;;;;;;;47.50;20.98;;;;;;;;;;5110512;28;20398;-72
2024/01/16 03:26:20;;;;;;;56.60;20.85;;;;;;;;;;5111612;28;20048;-72
2024/01/16 03:29:25;;;;;;;44.30;20.95;;;;;;;;;;5114959;28;20062;-72
2024/01/16 03:32:29;;;;;;;42.72;21.27;;;;;;;;;;5114570;28;20071;-73
2024/01/16 03:35:33;;;;;;;49.95;21.38;;;;;;;;;;5114994;28;20640;-72
2024/01/16 03:38:37;;;;;;;43.65;19.88;;;;;;;;;;5114143;28;20039;-72
2024/01/16 03:41:42;;;;;;;39.55;20.23;;;;;;;;;;5114224;28;20042;-72
2024/01/16 03:44:46;;;;;;;54.30;21.60;;;;;;;;;;5114882;28;20030;-72
2024/01/16 03:47:50;;;;;;;37.17;19.38;;;;;;;;;;5114979;28;20050;-72
2024/01/16 03:50:55;;;;;;;37.38;19.88;;;10.80;99.90;;;;;;5114832;28;20598;-73
2024/01/16 03:53:59;;;;;;;45.13;19.58;;;10.80;99.90;;;;;;5114900;28;20050;-72
2024/01/16 03:57:03;;;;;;;40.95;20.20;;;;;;;;;;5114737;28;20035;-72
2024/01/16 04:00:11;;;;;;;43.70;19.63;;;11.00;99.90;;;;;;5113962;28;20051;-72
2024/01/16 04:03:15;;;;;;;37.00;20.02;;;;;;;;;;5114730;28;20047;-72
2024/01/16 04:06:20;;;;;;;40.83;19.77;;;;;;;;;;5114289;28;20046;-72
2024/01/16 04:09:26;;;;;;;36.45;20.27;;;11.90;99.90;;;;;;5114161;28;20042;-72
2024/01/16 04:12:30;;;;;;;33.50;17.92;;;10.70;99.90;;;;;;5113391;28;20046;-72
2024/01/16 04:15:37;;;;;;;34.03;17.33;;;10.90;99.90;;;;;;5114281;28;20505;-72
2024/01/16 04:18:43;;;;;;;27.83;16.02;;;10.70;99.90;;;;;;5114199;28;20043;-73
2024/01/16 04:21:47;;;;;;;25.27;16.42;;;10.80;99.90;;;;;;5114129;28;20055;-72
2024/01/16 04:24:51;;;;;;;34.90;18.23;;;;;;;;;;5114047;28;20043;-72
2024/01/16 04:27:55;;;;;;;36.00;17.75;;;10.70;99.90;;;;;;5113422;28;20403;-71
2024/01/16 04:30:59;;;;;;;40.38;16.98;;;10.90;99.90;;;;;;5113913;28;20046;-72
2024/01/16 04:34:03;;;;;;;38.75;18.27;;;10.80;99.90;;;;;;5114083;28;20055;-72
2024/01/16 04:37:07;;;;;;;35.10;18.00;;;10.70;99.90;;;;;;5113113;28;20514;-72
2024/01/16 04:40:11;;;;;;;47.58;16.48;;;10.80;99.90;;;;;;5113544;28;20047;-72
2024/01/16 04:43:15;;;;;;;35.70;16.02;;;;;;;;;;5112876;28;20043;-72
2024/01/16 04:46:20;;;;;;;40.38;15.48;;;;;;;;;;5113769;28;20047;-72
2024/01/16 04:49:24;;;;;;;43.83;17.38;;;;;;;;;;5114041;28;20399;-72
2024/01/16 04:52:28;;;;;;;40.75;16.02;;;11.30;99.90;;;;;;5113434;28;20046;-72
2024/01/16 04:55:32;;;;;;;34.25;16.50;;;11.10;99.90;;;;;;5113440;28;20039;-72
2024/01/16 04:58:36;;;;;;;34.58;16.52;;;11.90;99.90;;;;;;5112698;28;20054;-72
2024/01/16 05:01:40;;;;;;;38.30;14.70;;;11.00;99.90;;;;;;5113453;28;20038;-72
2024/01/16 05:04:45;;;;;;;42.78;14.77;;;10.90;99.90;;;;;;5112546;28;20501;-72
2024/01/16 05:07:49;;;;;;;30.20;14.43;;;10.90;99.90;;;;;;5113437;28;20066;-72
2024/01/16 05:10:53;;;;;;;36.35;14.20;;;11.20;99.90;;;;;;5113415;28;20114;-72
2024/01/16 05:13:59;;;;;;;41.22;14.40;;;10.00;99.90;;;;;;5113046;28;20059;-72
2024/01/16 05:17:03;;;;;;;42.45;15.32;;;11.80;99.90;;;;;;5112951;28;20051;-72
2024/01/16 05:20:10;;;;;;;48.47;14.50;;;10.80;99.90;;;;;;5112816;28;20046;-71
2024/01/16 05:23:14;;;;;;;37.75;14.32;;;10.70;99.90;;;;;;5113290;28;20046;-72
2024/01/16 05:26:18;;;;;;;31.02;13.25;;;10.70;99.90;;;;;;5112721;28;20046;-72
2024/01/16 05:29:21;;;;;;;37.88;13.68;;;10.70;99.90;;;;;;5111971;28;20039;-72
2024/01/16 05:32:27;;;;;;;38.53;13.30;;;10.70;99.90;;;;;;5112537;28;20050;-72
2024/01/16 05:35:31;;;;;;;44.15;15.40;;;10.50;99.90;;;;;;5099888;28;20490;-71
2024/01/16 05:38:37;;;;;;;38.20;13.68;;;10.90;99.90;;;;;;5111873;28;20050;-72
2024/01/16 05:41:41;;;;;;;38.30;13.40;;;8.60;99.90;;;;;;5112654;28;20089;-72
2024/01/16 05:44:45;;;;;;;34.00;12.95;;;10.90;99.90;;;;;;5111378;28;20062;-72
2024/01/16 05:47:49;;;;;;;34.97;14.63;;;11.00;99.90;;;;;;5112576;28;20050;-71
2024/01/16 05:50:53;;;;;;;47.85;14.63;;;10.20;99.90;;;;;;5112412;28;20399;-72
2024/01/16 05:53:57;;;;;;;33.30;13.70;;;10.80;99.90;;;;;;5112534;28;20055;-72
2024/01/16 05:57:02;;;;;;;54.75;18.05;;;10.40;99.90;;;;;;5112148;28;20039;-72
2024/01/16 06:00:07;;;;;;;39.40;18.02;;;10.90;99.90;;;;;;5112207;28;20399;-72
2024/01/16 06:03:11;;;;;;;46.72;17.77;;;10.70;99.90;;;;;;5112428;28;20043;-72
2024/01/16 06:06:16;;;;;;;33.97;15.80;;;10.20;99.90;;;;;;5111329;28;20049;-72
2024/01/16 06:09:20;;;;;;;42.25;15.02;;;10.70;99.90;;;;;;5111950;28;20046;-72
2024/01/16 06:12:24;;;;;;;34.15;13.57;;;10.70;99.90;;;;;;5112089;28;20419;-72
2024/01/16 06:15:28;;;;;;;30.90;13.35;;;10.40;99.90;;;;;;5111795;28;20039;-72
2024/01/16 06:18:32;;;;;;;52.33;16.33;;;10.80;99.90;;;;;;5111791;28;20510;-72
2024/01/16 06:21:36;;;;;;;35.15;14.13;;;10.50;99.90;;;;;;5111826;28;20054;-72
2024/01/16 06:24:40;;;;;;;40.53;14.25;;;10.80;99.90;;;;;;5112006;28;20041;-71
2024/01/16 06:27:44;;;;;;;43.15;14.55;;;10.50;99.90;;;;;;5111860;28;20055;-73
2024/01/16 06:30:48;;;;;;;38.35;14.82;;;10.70;99.90;;;;;;5111226;28;20031;-73
2024/01/16 06:33:52;;;;;;;46.72;15.23;;;11.00;99.90;;;;;;5110830;28;20065;-72
2024/01/16 06:36:56;;;;;;;39.30;15.80;;;10.70;99.90;;;;;;5111257;28;20620;-72
2024/01/16 06:40:00;;;;;;;42.15;15.65;;;10.70;99.90;;;;;;5111501;28;20494;-72
2024/01/16 06:43:05;;;;;;;32.83;14.15;;;10.70;99.90;;;;;;5110714;28;20503;-70
2024/01/16 06:46:10;;;;;;;41.70;14.95;;;10.70;99.90;;;;;;5111316;28;20042;-70
2024/01/16 06:49:14;;;;;;;43.17;15.02;;;10.70;99.90;;;;;;5111312;28;20042;-70
2024/01/16 06:52:18;;;;;;;49.60;17.52;;;11.10;99.90;;;;;;5111230;28;20513;-71
2024/01/16 06:55:22;;;;;;;39.08;16.77;;;10.80;99.90;;;;;;5111107;28;20498;-72
2024/01/16 06:58:26;;;;;;;45.47;19.08;;;11.00;99.90;;;;;;5110587;28;20058;-72
2024/01/16 07:01:30;;;;;;;43.83;18.60;;;11.10;99.90;;;;;;5111889;28;20043;-72
2024/01/16 07:04:34;;;;;;;47.20;16.17;;;11.60;99.90;;;;;;5115586;28;20047;-72
2024/01/16 07:07:38;;;;;;;40.22;15.90;;;9.90;99.90;;;;;;5115283;28;20042;-72
2024/01/16 07:10:42;;;;;;;34.80;14.15;;;;;;;;;;5115404;28;20050;-69
2024/01/16 07:13:46;;;;;;;40.42;16.50;;;11.00;99.90;;;;;;5102970;28;20157;-71
2024/01/16 07:16:51;;;;;;;97.93;43.25;;;;;;;;;;5115244;28;20050;-69
2024/01/16 07:19:55;;;;;;;77.20;36.50;;;10.70;99.90;;;;;;5115072;28;20062;-68
2024/01/16 07:22:59;;;;;;;60.90;25.75;;;;;;;;;;5115169;28;20109;-71
2024/01/16 07:26:03;;;;;;;64.68;28.95;;;11.20;99.90;;;;;;5115123;28;20047;-68
2024/01/16 07:29:08;;;;;;;60.13;22.80;;;;;;;;;;5114944;28;20054;-69
2024/01/16 07:32:12;;;;;;;55.67;23.05;;;9.40;99.90;;;;;;5114099;28;20506;-70
2024/01/16 07:35:17;;;;;;;51.28;21.20;;;;;;;;;;5114827;28;20047;-68
2024/01/16 07:38:21;;;;;;;48.78;21.58;;;;;;;;;;5114983;28;20506;-71
2024/01/16 07:41:26;;;;;;;51.45;22.42;;;;;;;;;;5114309;28;20051;-73
2024/01/16 07:44:30;;;;;;;39.03;18.05;;;;;;;;;;5114912;28;20085;-70
2024/01/16 07:47:36;;;;;;;43.38;18.50;;;;;;;;;;5102116;28;20047;-70
2024/01/16 07:50:40;;;;;;;45.30;18.48;;;;;;;;;;5114873;28;20046;-69
2024/01/16 07:53:44;;;;;;;52.67;24.23;;;;;;;;;;5114608;28;20062;-69
2024/01/16 07:56:49;;;;;;;55.85;20.63;;;;;;;;;;5114418;28;20057;-69
2024/01/16 07:59:53;;;;;;;46.97;19.88;;;;;;;;;;5113720;28;20051;-70
2024/01/16 08:02:57;;;;;;;52.72;19.17;;;;;;;;;;5114598;28;20046;-69
2024/01/16 08:06:02;;;;;;;47.88;18.00;;;;;;;;;;5113394;28;20046;-70
2024/01/16 08:09:07;;;;;;;46.95;19.17;;;;;;;;;;5114231;28;20071;-72
2024/01/16 08:12:10;;;;;;;47.80;17.88;;;;;;;;;;5113155;28;20105;-70
2024/01/16 08:15:15;;;;;;;49.47;17.40;;;;;;;;;;5114254;28;20054;-71
2024/01/16 08:18:19;;;;;;;44.65;18.67;;;;;;;;;;5113667;28;20039;-71
2024/01/16 08:21:24;;;;;;;46.15;17.48;;;;;;;;;;5113237;28;20054;-72
2024/01/16 08:24:28;;;;;;;44.15;18.13;;;;;;;;;;5113239;28;20046;-70
2024/01/16 08:27:32;;;;;;;47.47;19.58;;;;;;;;;;5113933;28;20043;-70
2024/01/16 08:30:36;;;;;;;42.28;18.20;;;;;;;;;;5113391;28;20043;-70
2024/01/16 08:33:41;;;;;;;68.97;20.83;;;;;;;;;;5113441;28;20070;-70
2024/01/16 08:36:45;;;;;;;48.13;18.73;;;;;;;;;;5113827;28;20046;-71
2024/01/16 08:39:49;;;;;;;50.60;19.70;;;;;;;;;;5113732;28;20457;-70
2024/01/16 08:42:54;;;;;;;58.58;21.88;;;;;;;;;;5112425;28;20039;-71
2024/01/16 08:45:58;;;;;;;42.92;17.77;;;;;;;;;;5112514;28;20044;-72
2024/01/16 08:49:03;;;;;;;48.63;18.75;;;;;;;;;;5112680;28;20387;-71
2024/01/16 08:52:07;;;;;;;54.92;20.48;;;;;;;;;;5113604;28;20071;-71
2024/01/16 08:55:11;;;;;;;48.42;19.48;;;;;;;;;;5112406;28;20047;-72
2024/01/16 08:58:15;;;;;;;62.92;22.05;;;;;;;;;;5113429;28;20046;-73
2024/01/16 09:01:20;;;;;;;50.67;19.63;;;;;;;;;;5113372;28;20050;-71
2024/01/16 09:04:24;;;;;;;52.67;19.27;;;;;;;;;;5112585;28;20047;-70
2024/01/16 09:07:29;;;;;;;53.50;19.02;;;;;;;;;;5112904;28;20047;-71
2024/01/16 09:10:33;;;;;;;41.67;18.63;;;;;;;;;;5100738;28;20382;-72
2024/01/16 09:13:38;;;;;;;57.80;22.88;;;13.20;99.90;;;;;;5112703;28;20070;-71
2024/01/16 09:16:42;;;;;;;64.75;20.05;;;;;;;;;;5113025;28;20039;-72
2024/01/16 09:19:46;;;;;;;50.65;19.00;;;;;;;;;;5112803;28;20055;-70
2024/01/16 09:22:50;;;;;;;46.47;18.25;;;;;;;;;;5113119;28;20046;-71
2024/01/16 09:25:55;;;;;;;54.03;18.05;;;;;;;;;;5111561;28;20050;-73
2024/01/16 09:28:59;;;;;;;51.75;17.35;;;;;;;;;;5113026;28;20047;-72
2024/01/16 09:32:04;;;;;;;44.13;16.10;;;;;;;;;;5112651;28;20117;-70
2024/01/16 09:35:09;;;;;;;53.03;17.42;;;;;;;;;;5113388;28;20113;-72
2024/01/16 09:38:13;;;;;;;51.03;18.27;;;;;;;;;;5112909;28;20043;-70
2024/01/16 09:41:18;;;;;;;42.45;17.52;;;;;;;;;;5111498;28;20051;-71
2024/01/16 09:44:22;;;;;;;33.63;14.90;;;;;;;;;;5112920;28;20043;-71
2024/01/16 09:47:27;;;;;;;48.88;17.55;;;;;;;;;;5112685;28;20510;-72
2024/01/16 09:50:31;;;;;;;53.20;17.73;;;;;;;;;;5112776;28;20055;-70
2024/01/16 09:53:36;;;;;;;55.80;19.92;;;;;;;;;;5111990;28;20046;-71
2024/01/16 09:56:43;;;;;;;68.68;18.30;;;14.30;99.90;;;;;;5111188;28;20042;-72
2024/01/16 09:59:47;;;;;;;55.10;16.02;;;;;;;;;;5111888;28;20046;-71
2024/01/16 10:02:52;;;;;;;46.08;18.17;;;14.50;99.90;;;;;;5112044;28;20066;-72
2024/01/16 10:05:59;;;;;;;40.28;15.23;;;;;;;;;;5111803;28;20395;-72
2024/01/16 10:09:04;;;;;;;46.70;14.00;;;;;;;;;;5111803;28;20046;-71
2024/01/16 10:12:10;;;;;;;29.73;11.73;;;;;;;;;;5111944;28;20050;-72
2024/01/16 10:15:15;;;;;;;35.90;11.85;;;14.80;99.90;;;;;;5112118;28;20103;-71
2024/01/16 10:18:26;;;;;;;29.45;11.48;;;14.70;99.90;;;;;;5111753;28;20046;-71
2024/01/16 10:21:32;;;;;;;23.58;11.30;;;;;;;;;;5111938;28;20051;-72
2024/01/16 10:24:36;;;;;;;27.42;10.95;;;;;;;;;;5111609;28;20043;-72
2024/01/16 10:27:41;;;;;;;25.13;11.02;;;;;;;;;;5111794;28;20059;-71
2024/01/16 10:30:45;;;;;;;35.40;11.02;;;;;;;;;;5111631;28;20042;-68
2024/01/16 10:33:50;;;;;;;24.40;10.10;;;;;;;;;;5111498;28;20054;-70
2024/01/16 10:37:01;;;;;;;40.63;12.93;;;14.30;99.90;;;;;;5110658;28;20047;-70
2024/01/16 10:40:06;;;;;;;26.67;10.88;;;;;;;;;;5111856;28;20054;-71
2024/01/16 10:43:10;;;;;;;35.55;12.07;;;;;;;;;;5111697;28;20039;-71
2024/01/16 10:46:17;;;;;;;36.15;13.02;;;15.90;99.90;;;;;;5098821;28;20051;-70
2024/01/16 10:49:22;;;;;;;39.08;13.77;;;;;;;;;;5110697;28;20039;-68
2024/01/16 10:52:28;;;;;;;37.55;13.55;;;;;;;;;;5111459;28;20379;-70
2024/01/16 10:55:38;;;;;;;45.33;13.35;;;;;;;;;;5111248;28;20046;-69
2024/01/16 10:58:43;;;;;;;40.83;12.80;;;15.40;99.90;;;;;;5111313;28;20042;-72
2024/01/16 11:01:54;;;;;;;47.03;15.30;;;14.20;99.90;;;;;;5111100;28;20059;-69
2024/01/16 11:05:00;;;;;;;30.55;12.52;;;;;;;;;;5111225;28;20038;-68
2024/01/16 11:08:06;;;;;;;40.50;15.35;;;;;;;;;;5111434;28;20047;-69
2024/01/16 11:11:10;;;;;;;36.65;12.35;;;;;;;;;;5110930;28;20097;-68
2024/01/16 11:14:15;;;;;;;32.75;12.32;;;;;;;;;;5110891;28;20050;-72
2024/01/16 11:17:23;;;;;;;37.97;13.23;;;;;;;;;;5110249;28;20046;-70
2024/01/16 11:20:28;;;;;;;44.22;10.35;;;;;;;;;;5110977;28;20391;-69
2024/01/16 11:23:32;;;;;;;26.65;8.60;;;;;;;;;;5111568;28;20042;-71
2024/01/16 11:26:40;;;;;;;23.50;8.98;;;;;;;;;;5111160;28;20434;-68
2024/01/16 11:29:50;;;;;;;26.48;6.03;;;15.00;99.90;;;;;;5111238;28;20031;-69
2024/01/16 11:32:54;;;;;;;9.82;3.22;;;;;;;;;;5110874;28;20050;-69
2024/01/16 11:35:58;;;;;;;9.63;3.08;;;;;;;;;;5110667;28;20364;-70
2024/01/16 11:39:04;;;;;;;12.35;2.28;;;;;;;;;;5110908;28;20031;-70
2024/01/16 11:42:09;;;;;;;15.05;3.13;;;;;;;;;;5110611;28;20036;-67
2024/01/16 11:45:31;;;;;;;11.80;2.63;;;;;;;;;;5110798;28;20047;-71
2024/01/16 11:48:35;;;;;;;8.43;2.63;;;;;;;;;;5113386;28;20050;-72
2024/01/16 11:51:42;;;;;;;10.40;3.20;;;;;;;;;;5114643;28;20479;-71
2024/01/16 11:54:46;;;;;;;8.90;2.78;;;;;;;;;;5113715;28;20044;-72
2024/01/16 11:58:03;;;;;;;8.65;2.45;;;16.80;99.90;;;;;;5114753;28;20032;-74
2024/01/16 12:01:08;;;;;;;16.70;2.55;;;;;;;;;;5114519;28;20046;-70
2024/01/16 12:04:12;;;;;;;23.30;5.28;;;;;;;;;;5114276;28;20060;-69
2024/01/16 12:07:16;;;;;;;16.40;3.45;;;;;;;;;;5114078;28;20040;-69
2024/01/16 12:10:22;;;;;;;14.45;3.15;;;15.60;99.90;;;;;;5114061;28;20164;-69
2024/01/16 12:13:26;;;;;;;13.50;2.90;;;;;;;;;;5114139;28;20521;-68
2024/01/16 12:16:30;;;;;;;12.75;3.03;;;;;;;;;;5114251;28;20499;-68
2024/01/16 12:19:35;;;;;;;20.33;2.58;;;;;;;;;;5113565;28;20055;-68
2024/01/16 12:22:40;;;;;;;9.48;2.05;;;;;;;;;;5113830;28;20043;-69
2024/01/16 12:25:44;;;;;;;12.02;2.65;;;;;;;;;;5114145;28;20031;-69
2024/01/16 12:28:51;;;;;;;9.55;2.78;;;;;;;;;;5113855;28;20040;-69
2024/01/16 12:32:09;;;;;;;11.43;2.83;;;16.00;99.90;;;;;;5113522;28;20039;-69
2024/01/16 12:35:19;;;;;;;12.38;3.58;;;;;;;;;;5113922;28;20055;-68
2024/01/16 12:38:24;;;;;;;7.45;2.58;;;;;;;;;;5113558;28;20036;-67
2024/01/16 12:41:34;;;;;;;5.40;2.08;;;16.10;99.90;;;;;;5113541;28;20110;-68
2024/01/16 12:44:39;;;;;;;12.95;2.58;;;;;;;;;;5113486;28;20490;-67
2024/01/16 12:47:44;;;;;;;6.78;2.63;;;14.90;99.90;;;;;;5113533;28;20399;-68
2024/01/16 12:50:48;;;;;;;9.95;2.65;;;;;;;;;;5113523;28;20054;-68
2024/01/16 12:53:53;;;;;;;13.55;2.88;;;;;;;;;;5113097;28;20501;-69
2024/01/16 12:57:00;;;;;;;14.48;3.80;;;16.40;99.90;;;;;;5113554;28;20039;-67
2024/01/16 13:00:24;;;;;;;12.70;3.80;;;15.90;99.90;;;;;;5112529;28;20058;-67
2024/01/16 13:03:30;;;;;;;10.55;3.33;;;;;;;;;;5113312;28;20047;-68
2024/01/16 13:06:34;;;;;;;8.77;3.45;;;;;;;;;;5113003;28;20372;-71
2024/01/16 13:09:38;;;;;;;6.47;3.25;;;;;;;;;;5113326;28;20036;-68
2024/01/16 13:12:43;;;;;;;12.50;3.33;;;;;;;;;;5113144;28;20044;-71
2024/01/16 13:15:48;;;;;;;16.88;4.10;;;;;;;;;;5113129;28;20288;-71
2024/01/16 13:19:01;;;;;;;12.93;3.35;;;;;;;;;;5112064;28;20040;-71
2024/01/16 13:22:06;;;;;;;17.15;3.60;;;;;;;;;;5112816;28;20051;-68
2024/01/16 13:25:11;;;;;;;12.57;3.22;;;;;;;;;;5112736;28;20047;-68
2024/01/16 13:28:19;;;;;;;14.35;4.10;;;16.10;99.90;;;;;;5113035;28;20054;-72
2024/01/16 13:31:24;;;;;;;13.82;4.75;;;;;;;;;;5112704;28;20038;-71
2024/01/16 13:34:29;;;;;;;22.13;5.00;;;;;;;;;;5111416;28;20044;-71
2024/01/16 13:37:36;;;;;;;9.98;3.90;;;;;;;;;;5112446;28;20035;-72
2024/01/16 13:40:41;;;;;;;16.35;6.40;;;;;;;;;;5112750;28;20483;-72
2024/01/16 13:43:46;;;;;;;18.80;6.68;;;;;;;;;;5112634;28;20047;-73
2024/01/16 13:46:50;;;;;;;15.93;6.05;;;;;;;;;;5112103;28;20038;-72
2024/01/16 13:49:54;;;;;;;34.15;9.48;;;;;;;;;;5112347;28;20044;-71
2024/01/16 13:52:59;;;;;;;23.33;9.27;;;;;;;;;;5112397;28;20134;-71
2024/01/16 13:56:03;;;;;;;19.33;5.75;;;;;;;;;;5111994;28;20043;-70
2024/01/16 13:59:07;;;;;;;16.35;5.30;;;;;;;;;;5112339;28;20479;-74
2024/01/16 14:02:12;;;;;;;21.48;4.80;;;;;;;;;;5112582;28;20391;-72
2024/01/16 14:05:20;;;;;;;32.58;4.10;;;;;;;;;;5111737;28;20495;-73
2024/01/16 14:08:24;;;;;;;24.67;4.57;;;;;;;;;;5111819;28;20513;-72
2024/01/16 14:11:28;;;;;;;22.23;3.95;;;;;;;;;;5111985;28;20035;-70
2024/01/16 14:14:33;;;;;;;17.42;3.75;;;;;;;;;;5111672;28;20047;-70
2024/01/16 14:17:38;;;;;;;17.67;3.90;;;;;;;;;;5111643;28;20498;-71
2024/01/16 14:20:43;;;;;;;23.55;3.97;;;;;;;;;;5111966;28;20241;-69
2024/01/16 14:23:47;;;;;;;19.35;3.83;;;;;;;;;;5111916;28;20041;-73
2024/01/16 14:26:51;;;;;;;15.82;3.95;;;;;;;;;;5111820;28;20043;-72
2024/01/16 14:29:55;;;;;;;15.02;3.13;;;;;;;;;;5110673;28;20047;-71
2024/01/16 14:33:01;;;;;;;14.73;3.80;;;;;;;;;;5111603;28;20051;-73
2024/01/16 14:36:05;;;;;;;13.18;3.88;;;;;;;;;;5111555;28;20058;-73
2024/01/16 14:39:13;;;;;;;18.20;4.57;;;;;;;;;;5111718;28;20047;-71
2024/01/16 14:42:17;;;;;;;20.30;4.35;;;;;;;;;;5110640;28;20050;-73
2024/01/16 14:45:21;;;;;;;26.98;4.95;;;;;;;;;;5111659;28;20483;-72
2024/01/16 14:48:25;;;;;;;20.42;5.28;;;;;;;;;;5111413;28;20047;-73
2024/01/16 14:51:30;;;;;;;8.65;3.88;;;;;;;;;;5111345;28;20040;-74
2024/01/16 14:54:34;;;;;;;28.42;5.22;;;;;;;;;;5109060;28;20044;-72
2024/01/16 14:57:41;;;;;;;14.68;4.78;;;;;;;;;;5111546;28;20058;-73
2024/01/16 15:00:48;;;;;;;15.50;5.03;;;;;;;;;;5111397;28;20047;-71
2024/01/16 15:03:53;;;;;;;18.48;4.93;;;;;;;;;;5111564;28;20371;-72
2024/01/16 15:06:58;;;;;;;14.73;4.10;;;;;;;;;;5111978;28;20036;-71
2024/01/16 15:10:05;;;;;;;17.85;3.75;;;;;;;;;;5111310;28;20028;-75
2024/01/16 15:13:09;;;;;;;13.85;3.42;;;;;;;;;;5112086;28;20526;-79
2024/01/16 15:16:16;;;;;;;10.27;3.00;;;;;;;;;;5111739;28;20658;-72
2024/01/16 15:19:20;;;;;;;19.20;4.57;;;;;;;;;;5110637;28;20052;-76
2024/01/16 15:22:25;;;;;;;18.80;4.65;;;;;;;;;;5111285;28;20038;-78
2024/01/16 15:25:29;;;;;;;21.13;6.07;;;;;;;;;;5114697;28;20039;-75
2024/01/16 15:28:33;;;;;;;19.75;5.53;;;;;;;;;;5115198;28;20039;-77
2024/01/16 15:31:38;;;;;;;18.02;4.85;;;;;;;;;;5090968;28;20035;-73
2024/01/16 15:34:42;;;;;;;25.05;6.50;;;;;;;;;;5114815;28;20048;-73
2024/01/16 15:37:47;;;;;;;13.00;5.35;;;;;;;;;;5115166;28;20051;-73
2024/01/16 15:40:51;;;;;;;17.00;5.68;;;;;;;;;;5115403;28;20052;-80
2024/01/16 15:43:56;;;;;;;18.20;5.85;;;;;;;;;;5115056;28;20422;-72
2024/01/16 15:47:02;;;;;;;24.60;6.88;;;15.30;99.90;;;;;;5114733;28;20047;-73
2024/01/16 15:50:07;;;;;;;23.45;6.20;;;;;;;;;;5114681;28;20502;-71
2024/01/16 15:53:15;;;;;;;33.45;7.97;;;;;;;;;;5114469;28;20051;-72
2024/01/16 15:56:19;;;;;;;26.20;8.55;;;;;;;;;;5114802;28;20039;-73
2024/01/16 15:59:24;;;;;;;26.27;9.20;;;;;;;;;;5114235;28;20042;-72
2024/01/16 16:02:28;;;;;;;35.55;8.50;;;;;;;;;;5114194;28;20058;-71
2024/01/16 16:05:32;;;;;;;21.35;8.38;;;;;;;;;;5114282;28;20047;-72
2024/01/16 16:08:37;;;;;;;29.02;8.85;;;;;;;;;;5114293;28;20385;-72
2024/01/16 16:11:44;;;;;;;26.50;10.55;;;14.90;99.90;;;;;;5113401;28;20098;-72
2024/01/16 16:14:48;;;;;;;31.88;12.43;;;;;;;;;;5114229;28;20054;-71
2024/01/16 16:17:53;;;;;;;35.78;12.57;;;;;;;;;;5114300;28;20042;-69
2024/01/16 16:20:57;;;;;;;38.17;13.75;;;;;;;;;;5114338;28;20051;-70
2024/01/16 16:24:01;;;;;;;40.58;11.55;;;;;;;;;;5114239;28;20505;-69
2024/01/16 16:27:25;;;;;;;44.05;14.77;;;14.90;99.90;;;;;;5113966;28;20051;-72
2024/01/16 16:30:29;;;;;;;29.95;12.85;;;;;;;;;;5113909;28;20403;-70
2024/01/16 16:33:33;;;;;;;27.48;11.65;;;;;;;;;;5112967;28;20050;-72
2024/01/16 16:36:38;;;;;;;28.60;11.05;;;;;;;;;;5114000;28;20536;-71
2024/01/16 16:39:42;;;;;;;23.08;8.35;;;;;;;;;;5113487;28;20068;-71
2024/01/16 16:42:46;;;;;;;18.60;8.10;;;;;;;;;;5113805;28;20044;-70
2024/01/16 16:45:51;;;;;;;25.27;8.35;;;;;;;;;;5113753;28;20040;-70
2024/01/16 16:48:56;;;;;;;20.30;8.73;;;;;;;;;;5113621;28;20044;-70
2024/01/16 16:52:00;;;;;;;27.33;9.27;;;;;;;;;;5113757;28;20036;-70
2024/01/16 16:55:05;;;;;;;26.90;8.70;;;;;;;;;;5113162;28;20045;-70
2024/01/16 16:58:10;;;;;;;31.45;11.30;;;;;;;;;;5113281;28;20027;-69
2024/01/16 17:01:15;;;;;;;34.35;14.27;;;14.60;99.90;;;;;;5113412;28;20062;-71
2024/01/16 17:04:20;;;;;;;43.35;16.73;;;;;;;;;;5111831;28;20418;-74
2024/01/16 17:07:24;;;;;;;32.20;9.10;;;;;;;;;;5113334;28;20046;-75
2024/01/16 17:10:29;;;;;;;24.45;9.00;;;;;;;;;;5113470;28;20032;-73
2024/01/16 17:13:33;;;;;;;38.67;11.93;;;12.30;99.90;;;;;;5112103;28;20043;-73
2024/01/16 17:16:39;;;;;;;29.48;12.25;;;;;;;;;;5112736;28;20042;-73
2024/01/16 17:19:44;;;;;;;30.45;12.65;;;;;;;;;;5112758;28;20050;-72